Time;durP1;ratioP1;P1;durP2;ratioP2;P2;SDS_P1;SDS_P2;PMS_P1;PMS_P2;Temp;Humidity;BMP_temperature;BMP_pressure;BME280_temperature;BME280_humidity;BME280_pressure;Samples;Min_cycle;Max_cycle;Signal;HPM_P1;HPM_P2
2021/01/28 00:01:26;;;;;;;19.00;9.93;;;;;;;-1.21;88.50;98118.63;3438021;28;20061;-48
2021/01/28 00:03:10;;;;;;;20.23;8.95;;;;;;;-1.21;88.54;98113.53;3438147;28;20058;-48
2021/01/28 00:04:57;;;;;;;19.58;10.32;;;;;;;-1.22;88.23;98105.84;3441035;28;20046;-48
2021/01/28 00:06:39;;;;;;;20.05;9.50;;;;;;;-1.22;88.30;98105.84;3437767;28;20492;-47
2021/01/28 00:08:20;;;;;;;14.70;8.50;;;;;;;-1.22;88.31;98105.84;3441028;28;20074;-50
2021/01/28 00:10:04;;;;;;;18.92;8.63;;;;;;;-1.21;88.69;98112.69;3437537;28;20058;-48
2021/01/28 00:11:46;;;;;;;12.48;7.38;;;;;;;-1.20;88.46;98109.34;3439868;28;20054;-48
2021/01/28 00:13:28;;;;;;;18.33;8.43;;;;;;;-1.21;87.91;98102.50;3439494;28;20046;-49
2021/01/28 00:15:11;;;;;;;17.75;9.05;;;;;;;-1.21;88.11;98105.91;3439496;28;20081;-49
2021/01/28 00:16:53;;;;;;;17.13;8.82;;;;;;;-1.22;88.26;98116.91;3439414;28;20190;-50
2021/01/28 00:18:34;;;;;;;17.63;8.10;;;;;;;-1.21;88.15;98122.84;3439091;28;20538;-50
2021/01/28 00:20:18;;;;;;;18.48;9.18;;;;;;;-1.22;88.34;98116.91;3439705;28;20061;-46
2021/01/28 00:22:00;;;;;;;17.33;8.77;;;;;;;-1.22;88.43;98110.94;3439154;28;20050;-47
2021/01/28 00:23:42;;;;;;;17.27;8.75;;;;;;;-1.21;88.36;98105.91;3439351;28;20137;-46
2021/01/28 00:25:24;;;;;;;15.20;7.97;;;;;;;-1.20;88.46;98104.25;3437498;28;20050;-48
2021/01/28 00:27:06;;;;;;;18.65;8.68;;;;;;;-1.21;88.38;98100.81;3441109;28;20141;-49
2021/01/28 00:28:48;;;;;;;18.95;8.20;;;;;;;-1.20;88.14;98099.16;3439458;28;20472;-47
2021/01/28 00:30:33;;;;;;;17.95;8.38;;;;;;;-1.18;87.96;98100.06;3440589;28;20086;-46
2021/01/28 00:32:14;;;;;;;17.67;8.30;;;;;;;-1.19;88.14;98095.78;3438501;28;20046;-47
2021/01/28 00:33:56;;;;;;;16.02;9.10;;;;;;;-1.19;87.85;98101.75;3441498;28;20511;-47
2021/01/28 00:35:40;;;;;;;16.75;7.85;;;;;;;-1.19;88.00;98101.75;3439058;28;20133;-50
2021/01/28 00:37:21;;;;;;;20.63;9.75;;;;;;;-1.17;87.91;98084.88;3441258;28;20087;-47
2021/01/28 00:39:05;;;;;;;17.20;7.93;;;;;;;-1.15;87.89;98079.84;3439315;28;20457;-47
2021/01/28 00:40:47;;;;;;;20.08;8.63;;;;;;;-1.13;88.11;98055.31;3440268;28;20116;-49
2021/01/28 00:42:28;;;;;;;17.15;9.00;;;;;;;-1.12;87.75;98073.16;3438846;28;20053;-46
2021/01/28 00:44:10;;;;;;;17.23;8.90;;;;;;;-1.12;87.72;98087.53;3439863;28;20062;-48
2021/01/28 00:45:53;;;;;;;16.35;8.18;;;;;;;-1.11;88.05;98104.56;3439578;28;20057;-50
2021/01/28 00:47:35;;;;;;;19.30;9.10;;;;;;;-1.11;87.69;98104.56;3439887;28;20058;-47
2021/01/28 00:49:16;;;;;;;17.98;8.00;;;;;;;-1.10;87.77;98096.09;3440495;28;20054;-50
2021/01/28 00:51:00;;;;;;;16.92;8.02;;;;;;;-1.10;87.90;98080.81;3439471;28;20046;-47
2021/01/28 00:52:42;;;;;;;13.15;6.82;;;;;;;-1.09;87.67;98080.03;3440696;28;20069;-47
2021/01/28 00:54:25;;;;;;;16.08;7.72;;;;;;;-1.09;87.37;98082.56;3439435;28;20081;-47
2021/01/28 00:56:06;;;;;;;14.65;7.70;;;;;;;-1.08;87.60;98065.63;3440841;28;20054;-48
2021/01/28 00:57:48;;;;;;;12.80;7.25;;;;;;;-1.07;87.43;98078.41;3439256;28;20084;-51
2021/01/28 00:59:30;;;;;;;16.80;7.80;;;;;;;-1.07;87.46;98080.94;3441194;28;20074;-47
2021/01/28 01:01:11;;;;;;;16.40;7.70;;;;;;;-1.07;87.27;98080.09;3438141;28;20058;-47
2021/01/28 01:02:53;;;;;;;14.40;7.55;;;;;;;-1.08;87.27;98076.69;3441477;28;20066;-51
2021/01/28 01:04:35;;;;;;;14.85;7.65;;;;;;;-1.07;87.40;98060.59;3438712;28;20054;-49
2021/01/28 01:06:16;;;;;;;15.65;8.23;;;;;;;-1.07;87.36;98063.13;3440877;28;20050;-48
2021/01/28 01:08:00;;;;;;;17.83;7.97;;;;;;;-1.06;87.63;98064.00;3439477;28;20081;-48
2021/01/28 01:09:41;;;;;;;16.30;8.38;;;;;;;-1.05;87.41;98063.19;3439694;28;20077;-49
2021/01/28 01:11:23;;;;;;;16.13;7.97;;;;;;;-1.06;87.58;98062.31;3440107;28;20337;-49
2021/01/28 01:13:05;;;;;;;14.52;7.32;;;;;;;-1.06;87.37;98061.47;3439588;28;20117;-49
2021/01/28 01:14:48;;;;;;;17.83;8.80;;;;;;;-1.06;87.58;98061.47;3440038;28;20518;-49
2021/01/28 01:16:30;;;;;;;16.98;8.75;;;;;;;-1.06;87.37;98048.75;3439184;28;20089;-49
2021/01/28 01:18:14;;;;;;;14.85;7.75;;;;;;;-1.07;87.16;98050.41;3440531;28;20193;-50
2021/01/28 01:19:55;;;;;;;;;;;;;;;-1.08;87.34;98043.59;3439421;28;20062;-49
2021/01/28 01:21:37;;;;;;;15.82;7.55;;;;;;;-1.07;87.49;98062.28;3440310;28;19925;-47
2021/01/28 01:23:19;;;;;;;16.08;7.53;;;;;;;-1.08;87.49;98053.78;3438921;28;20094;-46
2021/01/28 01:25:09;;;;;;;18.63;8.90;;;;;;;-1.07;87.24;98057.19;3429989;28;20047;-46
2021/01/28 01:26:51;;;;;;;13.70;7.30;;;;;;;-1.07;87.55;98055.50;3437660;28;20057;-48
2021/01/28 01:28:32;;;;;;;17.38;8.75;;;;;;;-1.06;87.49;98056.38;3441099;28;20060;-49
2021/01/28 01:30:18;;;;;;;14.35;8.35;;;;;;;-1.06;87.20;98048.75;3437087;28;20054;-46
2021/01/28 01:32:00;;;;;;;16.52;8.45;;;;;;;-1.05;87.13;98055.53;3427873;28;20062;-49
2021/01/28 01:33:42;;;;;;;14.38;7.75;;;;;;;-1.05;87.00;98042.81;3436631;28;20078;-47
2021/01/28 01:35:24;;;;;;;14.20;7.18;;;;;;;-1.05;87.12;98047.91;3438709;28;20108;-48
2021/01/28 01:37:05;;;;;;;17.20;7.57;;;;;;;-1.06;86.97;98054.69;3439084;28;20579;-48
2021/01/28 01:38:47;;;;;;;17.20;8.48;;;;;;;-1.08;87.02;98053.78;3438917;28;20050;-47
2021/01/28 01:40:32;;;;;;;14.55;7.65;;;;;;;-1.08;87.36;98053.78;3439426;28;20448;-46
2021/01/28 01:42:13;;;;;;;16.63;8.13;;;;;;;-1.08;87.33;98046.16;3439450;28;20061;-46
2021/01/28 01:43:58;;;;;;;17.65;7.78;;;;;;;-1.08;87.08;98041.06;3440117;28;20046;-50
2021/01/28 01:45:43;;;;;;;16.42;8.75;;;;;;;-1.08;87.15;98030.00;3438312;28;20518;-51
2021/01/28 01:47:42;;;;;;;14.73;7.85;;;;;;;-1.08;87.33;98018.16;3440077;28;20054;-51
2021/01/28 01:49:24;;;;;;;14.52;7.82;;;;;;;-1.08;87.19;98025.78;3438996;28;20427;-53
2021/01/28 01:51:14;;;;;;;17.88;9.25;;;;;;;-1.08;87.22;98030.00;3440000;28;20175;-49
2021/01/28 01:52:57;;;;;;;15.10;7.63;;;;;;;-1.09;87.39;98024.03;3438230;28;20086;-51
2021/01/28 01:54:42;;;;;;;15.77;8.05;;;;;;;-1.10;87.30;98025.75;3442188;28;20046;-50
2021/01/28 01:56:27;;;;;;;15.68;8.02;;;;;;;-1.10;87.60;98030.81;3441277;28;20054;-51
2021/01/28 01:58:10;;;;;;;13.63;7.93;;;;;;;-1.11;87.73;98026.53;3442182;28;21468;-52
2021/01/28 01:59:58;;;;;;;15.43;7.43;;;;;;;-1.10;87.76;98013.00;3440094;28;20561;-52
2021/01/28 02:01:43;;;;;;;15.13;7.38;;;;;;;-1.10;87.48;98015.56;3442605;28;20065;-48
2021/01/28 02:03:28;;;;;;;14.68;7.32;;;;;;;-1.08;87.57;98022.34;3440361;28;20466;-53
2021/01/28 02:05:17;;;;;;;17.77;8.25;;;;;;;-1.07;87.75;98024.97;3441216;28;20050;-51
2021/01/28 02:07:04;;;;;;;13.45;7.07;;;;;;;-1.06;87.78;98010.56;3439901;28;20104;-47
2021/01/28 02:08:48;;;;;;;14.50;7.15;;;;;;;-1.06;88.02;98010.56;3442699;28;20093;-48
2021/01/28 02:10:30;;;;;;;;;;;;;;;-1.06;87.93;98008.88;3440970;28;20054;-48
2021/01/28 02:12:11;;;;;;;12.15;6.97;;;;;;;-1.05;88.04;98012.28;3442871;28;19934;-48
2021/01/28 02:13:57;;;;;;;13.63;6.95;;;;;;;-1.04;87.93;98011.50;3440161;28;20047;-48
2021/01/28 02:15:39;;;;;;;16.63;7.47;;;;;;;-1.03;88.10;98008.09;3442924;28;20051;-46
2021/01/28 02:17:24;;;;;;;14.13;7.75;;;;;;;-1.03;87.92;98003.91;3440053;28;20049;-47
2021/01/28 02:19:12;;;;;;;14.57;7.75;;;;;;;-1.02;87.82;97987.81;3442842;28;20097;-49
2021/01/28 02:21:06;;;;;;;16.88;7.57;;;;;;;-1.02;88.26;97979.31;3439092;28;20066;-49
2021/01/28 02:22:54;;;;;;;13.93;7.40;;;;;;;-1.02;87.73;97977.63;3433314;28;20046;-46
2021/01/28 02:24:48;;;;;;;13.75;7.47;;;;;;;-1.02;87.76;97981.84;3440333;28;20054;-46
2021/01/28 02:26:32;;;;;;;12.63;7.18;;;;;;;-1.03;87.99;97983.56;3429440;28;20061;-46
2021/01/28 02:28:17;;;;;;;14.88;7.93;;;;;;;-1.04;87.89;97978.41;3438815;28;20050;-50
2021/01/28 02:29:58;;;;;;;14.80;7.95;;;;;;;-1.03;87.93;97982.66;3429936;28;20479;-49
2021/01/28 02:31:43;;;;;;;17.15;7.40;;;;;;;-1.03;88.03;97981.00;3438031;28;20078;-50
2021/01/28 02:33:40;;;;;;;12.95;7.03;;;;;;;-1.02;87.68;97985.25;3441634;28;20061;-49
2021/01/28 02:35:23;;;;;;;15.93;7.60;;;;;;;-1.02;87.85;97975.06;3441273;28;20054;-46
2021/01/28 02:37:13;;;;;;;15.85;8.45;;;;;;;-1.02;87.86;97992.91;3441619;28;20050;-48
2021/01/28 02:38:55;;;;;;;16.52;7.88;;;;;;;-1.04;87.98;97986.91;3441265;28;20499;-47
2021/01/28 02:40:38;;;;;;;14.18;6.93;;;;;;;-1.03;88.22;97991.19;3441342;28;20054;-49
2021/01/28 02:42:24;;;;;;;15.10;8.18;;;;;;;-1.03;88.22;97988.63;3441281;28;20062;-47
2021/01/28 02:44:06;;;;;;;15.75;7.95;;;;;;;-1.03;88.08;97983.56;3441788;28;20050;-48
2021/01/28 02:45:47;;;;;;;16.63;7.88;;;;;;;-1.03;87.92;97987.75;3441336;28;20100;-47
2021/01/28 02:47:29;;;;;;;17.30;8.85;;;;;;;-1.02;88.27;97981.84;3440952;28;20061;-48
2021/01/28 02:49:11;;;;;;;14.13;7.15;;;;;;;-1.02;87.69;97982.72;3441521;28;20078;-48
2021/01/28 02:50:52;;;;;;;16.70;7.95;;;;;;;-1.01;87.77;97983.56;3440694;28;20076;-47
2021/01/28 02:52:35;;;;;;;15.10;7.80;;;;;;;-1.01;87.87;97996.28;3442088;28;20086;-49
2021/01/28 02:54:17;;;;;;;15.93;7.72;;;;;;;-1.00;87.91;98006.53;3440518;28;20046;-46
2021/01/28 02:55:58;;;;;;;13.55;7.28;;;;;;;-0.99;87.84;98012.50;3442047;28;20547;-47
2021/01/28 02:57:41;;;;;;;17.30;7.72;;;;;;;-0.99;87.68;98013.34;3440154;28;20096;-49
2021/01/28 02:59:22;;;;;;;17.55;8.68;;;;;;;-0.99;88.06;98009.97;3442480;28;20065;-50
2021/01/28 03:01:05;;;;;;;15.48;7.97;;;;;;;-0.99;88.10;98008.28;3439558;28;20062;-48
2021/01/28 03:02:50;;;;;;;14.23;7.18;;;;;;;-0.99;88.09;98007.41;3429102;28;20058;-51
2021/01/28 03:04:32;;;;;;;14.80;8.15;;;;;;;-0.98;87.89;97999.81;3436136;28;20061;-47
2021/01/28 03:06:14;;;;;;;16.52;8.18;;;;;;;-0.97;88.16;98004.09;3441311;28;20431;-50
2021/01/28 03:07:56;;;;;;;15.48;8.07;;;;;;;-0.96;87.81;98007.50;3441027;28;20124;-47
2021/01/28 03:09:38;;;;;;;17.20;7.57;;;;;;;-0.97;88.16;98001.53;3441050;28;20062;-48
2021/01/28 03:11:20;;;;;;;20.33;8.73;;;;;;;-0.96;88.12;98002.41;3440803;28;20419;-47
2021/01/28 03:13:03;;;;;;;16.50;8.80;;;;;;;-0.96;87.79;97995.66;3440765;28;20423;-47
2021/01/28 03:14:45;;;;;;;16.42;8.32;;;;;;;-0.96;88.15;98005.84;3441220;28;20054;-47
2021/01/28 03:16:27;;;;;;;17.25;8.95;;;;;;;-0.97;88.31;97988.81;3440572;28;20526;-48
2021/01/28 03:18:09;;;;;;;16.48;8.90;;;;;;;-0.96;88.00;97995.66;3441225;28;20053;-48
2021/01/28 03:19:52;;;;;;;15.88;8.43;;;;;;;-0.95;88.07;97989.72;3439743;28;20055;-47
2021/01/28 03:21:34;;;;;;;17.30;9.40;;;;;;;-0.94;88.48;97985.50;3441340;28;20540;-46
2021/01/28 03:23:15;;;;;;;18.90;8.88;;;;;;;-0.94;88.05;97985.50;3439868;28;20515;-49
2021/01/28 03:24:57;;;;;;;17.73;8.60;;;;;;;-0.94;88.13;97988.03;3442421;28;20090;-50
2021/01/28 03:26:39;;;;;;;21.40;9.77;;;;;;;-0.94;88.03;97994.00;3439123;28;20499;-48
2021/01/28 03:28:21;;;;;;;15.30;8.57;;;;;;;-0.93;88.16;97995.72;3441345;28;20496;-49
2021/01/28 03:30:06;;;;;;;18.05;9.65;;;;;;;-0.92;88.32;97994.06;3439000;28;20328;-50
2021/01/28 03:31:48;;;;;;;17.92;8.55;;;;;;;-0.92;88.29;97989.84;3440153;28;20554;-47
2021/01/28 03:33:30;;;;;;;18.35;9.70;;;;;;;-0.90;88.22;97994.97;3440754;28;20074;-50
2021/01/28 03:35:12;;;;;;;17.70;9.55;;;;;;;-0.89;88.44;97993.28;3429474;28;20054;-48
2021/01/28 03:36:53;;;;;;;20.48;9.80;;;;;;;-0.89;87.88;97993.28;3435184;28;20057;-48
2021/01/28 03:38:35;;;;;;;19.67;9.25;;;;;;;-0.89;88.31;97986.50;3440691;28;20108;-46
2021/01/28 03:40:18;;;;;;;18.95;10.52;;;;;;;-0.89;88.17;97986.50;3440626;28;20511;-51
2021/01/28 03:42:00;;;;;;;20.02;9.27;;;;;;;-0.88;88.17;97993.34;3440324;28;20069;-48
2021/01/28 03:43:42;;;;;;;17.80;9.77;;;;;;;-0.89;88.16;97994.13;3441121;28;20057;-48
2021/01/28 03:45:27;;;;;;;20.33;9.27;;;;;;;-0.87;88.19;97986.56;3439994;28;20058;-49
2021/01/28 03:47:08;;;;;;;20.73;9.93;;;;;;;-0.88;88.36;97980.59;3440908;28;20046;-46
2021/01/28 03:48:50;;;;;;;17.98;10.15;;;;;;;-0.86;88.43;97975.56;3439256;28;20051;-49
2021/01/28 03:50:34;;;;;;;21.75;10.10;;;;;;;-0.86;88.35;97968.78;3441338;28;20050;-50
2021/01/28 03:52:15;;;;;;;20.58;9.50;;;;;;;-0.84;88.30;97981.56;3439537;28;20054;-51
2021/01/28 03:53:57;;;;;;;22.35;10.45;;;;;;;-0.83;88.33;97973.13;3441974;28;20084;-49
2021/01/28 03:55:39;;;;;;;22.20;10.13;;;;;;;-0.82;88.12;97980.78;3439263;28;20050;-50
2021/01/28 03:57:20;;;;;;;20.08;10.55;;;;;;;-0.81;88.38;97982.53;3441403;28;20570;-50
2021/01/28 03:59:03;;;;;;;22.25;10.13;;;;;;;-0.80;88.30;97985.94;3440261;28;20053;-48
2021/01/28 04:00:46;;;;;;;18.52;8.98;;;;;;;-0.80;88.20;97988.47;3441880;28;20145;-52
2021/01/28 04:02:28;;;;;;;24.48;11.27;;;;;;;-0.79;88.00;97993.63;3440241;28;20189;-52
2021/01/28 04:04:28;;;;;;;23.65;10.38;;;;;;;-0.78;88.25;97984.31;3440605;28;20050;-53
2021/01/28 04:06:10;;;;;;;24.17;10.52;;;;;;;-0.78;88.10;97981.78;3439400;28;20413;-52
2021/01/28 04:07:52;;;;;;;23.30;11.30;;;;;;;-0.78;88.08;97985.19;3441294;28;20085;-52
2021/01/28 04:09:34;;;;;;;24.05;10.88;;;;;;;-0.78;88.13;97985.19;3440443;28;20054;-52
2021/01/28 04:11:16;;;;;;;24.13;10.80;;;;;;;-0.78;87.94;97987.72;3440111;28;20058;-51
2021/01/28 04:12:58;;;;;;;18.67;9.32;;;;;;;-0.77;88.03;97984.34;3440409;28;20471;-51
2021/01/28 04:14:40;;;;;;;21.25;10.13;;;;;;;-0.75;88.15;97985.28;3440009;28;20054;-52
2021/01/28 04:16:25;;;;;;;19.38;9.57;;;;;;;-0.74;88.37;97975.94;3431355;28;20054;-49
2021/01/28 04:18:07;;;;;;;22.50;11.80;;;;;;;-0.73;88.03;97983.63;3440046;28;20046;-50
2021/01/28 04:19:49;;;;;;;19.35;9.95;;;;;;;-0.70;88.47;97992.19;3440996;28;20061;-52
2021/01/28 04:21:30;;;;;;;29.92;10.15;;;;;;;-0.71;87.97;97996.41;3439705;28;20058;-52
2021/01/28 04:23:12;;;;;;;22.33;10.88;;;;;;;-0.72;88.19;97995.53;3441067;28;20586;-51
2021/01/28 04:24:54;;;;;;;22.52;10.15;;;;;;;-0.71;87.90;98004.06;3439415;28;20057;-51
2021/01/28 04:26:36;;;;;;;18.50;10.00;;;;;;;-0.71;88.02;98001.50;3441495;28;20050;-49
2021/01/28 04:28:18;;;;;;;20.45;10.02;;;;;;;-0.70;88.27;97999.81;3438706;28;20049;-52
2021/01/28 04:30:00;;;;;;;21.63;10.90;;;;;;;-0.70;88.22;98002.38;3441724;28;20090;-48
2021/01/28 04:31:42;;;;;;;20.15;9.93;;;;;;;-0.71;88.47;97998.97;3437513;28;20050;-50
2021/01/28 04:33:23;;;;;;;19.25;9.63;;;;;;;-0.71;88.20;97993.88;3441342;28;20212;-48
2021/01/28 04:35:06;;;;;;;22.73;10.55;;;;;;;-0.72;88.17;97980.25;3440013;28;20495;-51
2021/01/28 04:36:48;;;;;;;18.02;9.52;;;;;;;-0.72;88.11;97982.81;3439099;28;20058;-49
2021/01/28 04:38:30;;;;;;;19.90;10.05;;;;;;;-0.71;88.13;97991.31;3440362;28;20088;-49
2021/01/28 04:40:21;;;;;;;21.02;9.90;;;;;;;-0.70;88.11;97992.19;3439816;28;20104;-51
2021/01/28 04:42:04;;;;;;;22.60;10.23;;;;;;;-0.70;88.51;97979.44;3440056;28;20423;-51
2021/01/28 04:43:48;;;;;;;22.58;10.10;;;;;;;-0.69;88.18;97973.53;3440550;28;20082;-46
2021/01/28 04:45:32;;;;;;;19.83;9.65;;;;;;;-0.70;88.26;97972.66;3440383;28;20046;-46
2021/01/28 04:47:18;;;;;;;21.75;10.95;;;;;;;-0.69;88.39;97976.97;3439518;28;20082;-50
2021/01/28 04:49:01;;;;;;;20.73;9.98;;;;;;;-0.68;88.50;97977.81;3440729;28;20086;-48
2021/01/28 04:50:43;;;;;;;21.85;10.13;;;;;;;-0.69;88.82;97979.50;3438802;28;20056;-51
2021/01/28 04:52:28;;;;;;;18.73;10.07;;;;;;;-0.69;88.70;97976.97;3440779;28;20062;-51
2021/01/28 04:54:20;;;;;;;17.90;9.10;;;;;;;-0.69;88.36;97974.41;3438154;28;20054;-47
2021/01/28 04:56:07;;;;;;;18.00;9.43;;;;;;;-0.67;88.54;97979.56;3440596;28;20563;-46
2021/01/28 04:57:48;;;;;;;21.02;10.13;;;;;;;-0.68;88.58;97968.47;3439180;28;20427;-49
2021/01/28 04:59:32;;;;;;;20.83;11.45;;;;;;;-0.68;88.53;97968.47;3440661;28;20531;-47
2021/01/28 05:01:14;;;;;;;22.20;11.05;;;;;;;-0.68;88.84;97965.09;3438779;28;20081;-46
2021/01/28 05:03:06;;;;;;;23.15;10.38;;;;;;;-0.69;88.80;97959.13;3441308;28;20046;-47
2021/01/28 05:04:52;;;;;;;22.05;11.07;;;;;;;-0.70;88.77;97949.75;3437755;28;20053;-46
2021/01/28 05:06:34;;;;;;;21.52;9.93;;;;;;;-0.69;88.70;97951.50;3441302;28;20062;-46
2021/01/28 05:08:15;;;;;;;23.98;10.48;;;;;;;-0.69;88.80;97938.75;3438614;28;20265;-49
2021/01/28 05:10:02;;;;;;;20.17;10.48;;;;;;;-0.69;88.89;97930.25;3428102;28;20114;-45
2021/01/28 05:11:53;;;;;;;18.08;9.93;;;;;;;-0.69;89.06;97922.59;3435047;28;20097;-46
2021/01/28 05:13:37;;;;;;;21.10;9.68;;;;;;;-0.70;88.53;97931.94;3427759;28;20094;-46
2021/01/28 05:15:20;;;;;;;;;;;;;;;-0.69;88.66;97932.78;3435867;28;20058;-46
2021/01/28 05:17:05;;;;;;;15.52;9.35;;;;;;;-0.68;88.98;97934.53;3440797;28;20023;-46
2021/01/28 05:18:58;;;;;;;23.33;9.95;;;;;;;-0.69;88.94;97938.75;3439525;28;20056;-45
2021/01/28 05:20:39;;;;;;;19.80;11.02;;;;;;;-0.67;88.87;97944.75;3440532;28;20058;-46
2021/01/28 05:22:24;;;;;;;20.48;9.88;;;;;;;-0.69;88.77;97943.84;3439455;28;20057;-46
2021/01/28 05:24:11;;;;;;;22.25;10.88;;;;;;;-0.69;89.03;97946.41;3439147;28;20090;-46
2021/01/28 05:25:53;;;;;;;24.30;10.45;;;;;;;-0.69;88.89;97941.31;3439853;28;20054;-45
2021/01/28 05:27:40;;;;;;;21.88;10.68;;;;;;;-0.67;89.24;97943.91;3439639;28;20053;-47
2021/01/28 05:29:25;;;;;;;24.95;11.25;;;;;;;-0.67;88.97;97932.03;3441658;28;20046;-47
2021/01/28 05:31:16;;;;;;;20.48;10.25;;;;;;;-0.66;89.36;97931.22;3439260;28;20046;-49
2021/01/28 05:32:58;;;;;;;21.98;11.27;;;;;;;-0.65;88.80;97935.47;3442103;28;20542;-49
2021/01/28 05:34:40;;;;;;;24.65;11.88;;;;;;;-0.64;88.91;97933.78;3441731;28;20435;-48
2021/01/28 05:36:24;;;;;;;23.52;11.30;;;;;;;-0.64;88.61;97936.34;3442443;28;20046;-49
2021/01/28 05:38:10;;;;;;;21.80;10.30;;;;;;;-0.65;88.75;97938.03;3441632;28;20112;-50
2021/01/28 05:40:09;;;;;;;23.58;11.52;;;;;;;-0.65;89.04;97935.47;3442601;28;20121;-49
2021/01/28 05:42:03;;;;;;;21.83;11.82;;;;;;;-0.64;89.06;97933.78;3441135;28;20049;-50
2021/01/28 05:43:46;;;;;;;21.87;9.93;;;;;;;-0.63;88.86;97928.75;3442512;28;20061;-52
2021/01/28 05:45:32;;;;;;;21.05;10.77;;;;;;;-0.63;89.13;97936.38;3441532;28;20042;-52
2021/01/28 05:47:27;;;;;;;25.10;11.40;;;;;;;-0.64;88.76;97926.16;3442010;28;20054;-51
2021/01/28 05:49:18;;;;;;;24.08;11.80;;;;;;;-0.63;88.80;97935.53;3439713;28;20053;-50
2021/01/28 05:51:10;;;;;;;26.23;11.27;;;;;;;-0.65;88.76;97945.66;3442013;28;20564;-48
2021/01/28 05:53:08;;;;;;;23.00;11.98;;;;;;;-0.64;89.10;97934.69;3439700;28;20507;-50
2021/01/28 05:55:07;;;;;;;22.88;11.20;;;;;;;-0.65;89.00;97942.25;3442235;28;20499;-52
2021/01/28 05:57:05;;;;;;;25.15;11.25;;;;;;;-0.66;89.10;97935.44;3440978;28;20046;-50
2021/01/28 05:58:50;;;;;;;25.67;11.15;;;;;;;-0.66;88.97;97943.06;3441337;28;20046;-52
2021/01/28 06:00:38;;;;;;;23.50;12.23;;;;;;;-0.67;89.02;97939.66;3442659;28;20057;-50
2021/01/28 06:02:45;;;;;;;25.50;11.65;;;;;;;-0.67;88.98;97932.03;3441788;28;20047;-51
2021/01/28 06:04:48;;;;;;;24.10;11.35;;;;;;;-0.68;89.45;97924.34;3429566;28;20055;-50
2021/01/28 06:06:53;;;;;;;22.10;10.65;;;;;;;-0.66;89.43;97937.97;3439560;28;20500;-50
2021/01/28 06:08:49;;;;;;;21.17;10.60;;;;;;;-0.65;89.48;97958.41;3442946;28;20070;-46
2021/01/28 06:10:48;;;;;;;22.25;10.73;;;;;;;-0.63;89.45;97944.03;3439975;28;20535;-47
2021/01/28 06:15:14;;;;;;;24.77;10.98;;;;;;;-0.61;89.14;97952.56;3438352;28;20042;-47
2021/01/28 06:17:11;;;;;;;22.33;10.38;;;;;;;-0.59;89.07;97953.50;3434743;28;20427;-49
2021/01/28 06:19:28;;;;;;;24.65;11.55;;;;;;;-0.58;89.21;97954.34;3441899;28;20427;-46
2021/01/28 06:21:31;;;;;;;26.73;11.77;;;;;;;-0.58;88.91;97954.34;3438162;28;20057;-48
2021/01/28 06:23:35;;;;;;;25.15;12.13;;;;;;;-0.59;88.81;97945.88;3439488;28;20061;-48
2021/01/28 06:25:53;;;;;;;24.70;12.13;;;;;;;-0.59;88.96;97940.78;3439347;28;20056;-47
2021/01/28 06:27:58;;;;;;;23.48;10.60;;;;;;;-0.58;88.90;97952.66;3437752;28;20051;-49
2021/01/28 06:29:57;;;;;;;;;;;;;;;-0.57;88.72;97954.41;3440188;28;20054;-47
2021/01/28 06:31:49;;;;;;;26.95;12.98;;;;;;;-0.56;88.65;97956.13;3404924;28;19929;-50
2021/01/28 06:34:05;;;;;;;24.70;11.95;;;;;;;-0.55;88.75;97957.00;3439641;28;20047;-46
2021/01/28 06:36:21;;;;;;;27.58;12.30;;;;;;;-0.53;88.90;97955.38;3427628;28;20050;-46
2021/01/28 06:38:19;;;;;;;26.30;12.48;;;;;;;-0.53;89.14;97940.94;3440556;28;20523;-48
2021/01/28 06:40:06;;;;;;;28.13;11.98;;;;;;;-0.52;89.00;97936.69;3438261;28;20423;-47
2021/01/28 06:42:00;;;;;;;26.60;13.23;;;;;;;-0.50;88.63;97936.75;3440504;28;20050;-46
2021/01/28 06:43:57;;;;;;;30.13;14.48;;;;;;;-0.50;88.95;97927.44;3440096;28;20054;-49
2021/01/28 06:45:53;;;;;;;28.60;13.02;;;;;;;-0.51;89.07;97925.72;3439048;28;20508;-47
2021/01/28 06:47:40;;;;;;;29.73;13.10;;;;;;;-0.51;89.13;97930.81;3440665;28;20061;-49
2021/01/28 06:49:31;;;;;;;29.00;13.23;;;;;;;-0.50;89.18;97931.66;3441573;28;20112;-47
2021/01/28 06:51:25;;;;;;;26.58;11.90;;;;;;;-0.53;89.00;97923.13;3440893;28;20144;-46
2021/01/28 06:53:13;;;;;;;28.38;13.00;;;;;;;-0.51;89.61;97919.75;3440607;28;20057;-49
2021/01/28 06:55:01;;;;;;;31.05;13.80;;;;;;;-0.51;89.01;97912.97;3441598;28;20507;-50
2021/01/28 06:56:48;;;;;;;30.70;13.57;;;;;;;-0.49;89.36;97907.94;3439925;28;20423;-47
2021/01/28 06:58:47;;;;;;;28.58;13.00;;;;;;;-0.49;89.29;97910.47;3442160;28;20140;-48
2021/01/28 07:00:35;;;;;;;28.98;13.15;;;;;;;-0.49;89.40;97906.22;3439164;28;20053;-49
2021/01/28 07:02:30;;;;;;;28.60;13.70;;;;;;;-0.49;89.27;97913.03;3441915;28;20058;-50
2021/01/28 07:04:22;;;;;;;32.15;14.75;;;;;;;-0.49;89.57;97913.88;3438556;28;20058;-47
2021/01/28 07:06:09;;;;;;;33.30;14.35;;;;;;;-0.49;89.46;97913.88;3439317;28;20050;-49
2021/01/28 07:08:14;;;;;;;28.52;13.35;;;;;;;-0.49;89.53;97911.31;3438242;28;20050;-49
2021/01/28 07:10:01;;;;;;;30.65;13.48;;;;;;;-0.47;89.55;97906.28;3439566;28;20499;-47
2021/01/28 07:11:44;;;;;;;28.45;12.80;;;;;;;-0.48;89.75;97902.88;3438108;28;20057;-46
2021/01/28 07:13:31;;;;;;;27.35;12.75;;;;;;;-0.46;89.90;97908.03;3441309;28;20050;-47
2021/01/28 07:15:14;;;;;;;26.35;11.25;;;;;;;-0.46;89.86;97901.22;3438001;28;20050;-49
2021/01/28 07:17:03;;;;;;;37.43;13.50;;;;;;;-0.43;90.05;97901.31;3441312;28;20396;-49
2021/01/28 07:18:50;;;;;;;28.65;12.95;;;;;;;-0.41;89.97;97897.13;3436499;28;20292;-46
2021/01/28 07:20:34;;;;;;;23.83;11.18;;;;;;;-0.39;90.24;97892.94;3440715;28;20046;-47
2021/01/28 07:22:27;;;;;;;27.92;13.23;;;;;;;-0.36;89.97;97879.41;3439612;28;20078;-50
2021/01/28 07:24:23;;;;;;;30.83;13.30;;;;;;;-0.33;89.92;97874.41;3439725;28;20482;-50
2021/01/28 07:26:13;;;;;;;28.63;13.25;;;;;;;-0.38;89.44;97866.66;3437121;28;20082;-49
2021/01/28 07:27:58;;;;;;;26.25;13.07;;;;;;;-0.35;89.76;97874.38;3441570;28;20057;-47
2021/01/28 07:29:55;;;;;;;28.77;13.73;;;;;;;-0.37;89.68;97876.00;3435354;28;20168;-47
2021/01/28 07:31:46;;;;;;;27.30;12.23;;;;;;;-0.34;89.66;97885.44;3438967;28;20058;-47
2021/01/28 07:33:36;;;;;;;22.80;11.85;;;;;;;-0.35;89.61;97888.78;3436386;28;20057;-47
2021/01/28 07:35:46;;;;;;;28.02;12.95;;;;;;;-0.31;89.79;97888.03;3440154;28;20093;-50
2021/01/28 07:37:28;;;;;;;28.77;13.40;;;;;;;-0.32;89.71;97893.97;3437313;28;20595;-48
2021/01/28 07:39:34;;;;;;;25.17;12.50;;;;;;;-0.28;90.15;97895.78;3439841;28;20054;-47
2021/01/28 07:41:21;;;;;;;;;;;;;;;-0.25;90.07;97907.72;3437183;28;20046;-47
2021/01/28 07:43:03;;;;;;;26.30;11.93;;;;;;;-0.22;90.02;97905.28;3439819;28;19925;-48
2021/01/28 07:44:49;;;;;;;33.13;13.60;;;;;;;-0.21;90.03;97905.31;3439210;28;20061;-46
2021/01/28 07:46:39;;;;;;;30.92;14.13;;;;;;;-0.19;90.18;97900.28;3441369;28;20050;-51
2021/01/28 07:48:27;;;;;;;25.25;12.32;;;;;;;-0.17;90.12;97893.53;3438224;28;20493;-52
2021/01/28 07:50:19;;;;;;;29.77;13.20;;;;;;;-0.13;89.91;97892.78;3441165;28;20050;-49
2021/01/28 07:52:35;;;;;;;29.80;12.80;;;;;;;-0.10;89.93;97894.56;3438741;28;20419;-52
2021/01/28 07:54:36;;;;;;;26.15;12.98;;;;;;;-0.10;89.80;97890.31;3397623;29;20087;-49
2021/01/28 07:56:48;;;;;;;25.95;12.82;;;;;;;-0.09;89.73;97891.22;3393401;29;20052;-48
2021/01/28 07:58:33;;;;;;;32.63;13.27;;;;;;;-0.08;89.44;97896.31;3395258;29;20055;-52
2021/01/28 08:00:18;;;;;;;31.45;13.85;;;;;;;-0.06;89.15;97899.78;3430714;28;20470;-52
2021/01/28 08:02:14;;;;;;;24.65;11.98;;;;;;;-0.05;89.63;97904.06;3438595;28;20050;-52
2021/01/28 08:04:03;;;;;;;30.88;14.60;;;;;;;-0.02;89.62;97904.16;3440327;28;20092;-52
2021/01/28 08:05:51;;;;;;;31.42;12.98;;;;;;;-0.01;89.37;97910.09;3436186;28;20511;-50
2021/01/28 08:07:36;;;;;;;23.25;11.60;;;;;;;0.02;89.47;97910.19;3438534;28;20090;-50
2021/01/28 08:09:17;;;;;;;28.05;12.27;;;;;;;0.01;89.30;97904.22;3438985;28;20042;-49
2021/01/28 08:11:14;;;;;;;34.03;13.55;;;;;;;0.03;89.25;97915.31;3438022;28;20103;-50
2021/01/28 08:13:00;;;;;;;29.33;12.70;;;;;;;0.03;89.82;97917.00;3437083;28;20093;-47
2021/01/28 08:14:44;;;;;;;27.83;12.30;;;;;;;0.02;89.82;97923.78;3440740;28;20058;-49
2021/01/28 08:16:27;;;;;;;29.75;12.50;;;;;;;0.03;89.94;97928.06;3437940;28;20046;-49
2021/01/28 08:18:16;;;;;;;27.58;13.85;;;;;;;0.05;89.66;97928.13;3439351;28;20050;-49